Time;durP1;ratioP1;P1;durP2;ratioP2;P2;SDS_P1;SDS_P2;PMS_P1;PMS_P2;Temp;Humidity;BMP_temperature;BMP_pressure;BME280_temperature;BME280_humidity;BME280_pressure;Samples;Min_cycle;Max_cycle;Signal;HPM_P1;HPM_P2
2023/05/08 00:01:06;;;;;;;9.77;8.87;;;16.00;99.90;;;;;;6298552;28;20480;-63
2023/05/08 00:04:09;;;;;;;9.40;8.50;;;16.00;99.90;;;;;;6298052;28;20517;-63
2023/05/08 00:07:12;;;;;;;9.53;8.73;;;15.80;99.90;;;;;;6298053;28;20526;-64
2023/05/08 00:10:15;;;;;;;9.47;8.47;;;15.70;99.90;;;;;;6298619;28;20484;-64
2023/05/08 00:13:20;;;;;;;9.50;8.70;;;15.70;99.90;;;;;;6298132;28;20952;-64
2023/05/08 00:16:25;;;;;;;9.53;8.73;;;15.70;99.90;;;;;;6298550;28;20790;-64
2023/05/08 00:19:29;;;;;;;9.20;8.37;;;15.70;99.90;;;;;;6298312;28;20472;-64
2023/05/08 00:22:32;;;;;;;9.63;8.83;;;15.70;99.90;;;;;;6299091;28;20953;-64
2023/05/08 00:25:35;;;;;;;11.40;8.57;;;15.60;99.90;;;;;;6298486;28;20975;-63
2023/05/08 00:28:40;;;;;;;10.13;9.27;;;15.60;99.90;;;;;;6298900;28;20472;-64
2023/05/08 00:31:43;;;;;;;10.93;9.40;;;15.60;99.90;;;;;;6298710;28;20527;-64
2023/05/08 00:34:49;;;;;;;11.20;9.50;;;15.60;99.90;;;;;;6298308;28;20976;-64
2023/05/08 00:37:52;;;;;;;10.63;9.57;;;15.50;99.90;;;;;;6298902;28;20950;-64
2023/05/08 00:40:55;;;;;;;9.50;8.63;;;15.40;99.90;;;;;;6298798;28;20485;-64
2023/05/08 00:44:00;;;;;;;10.73;9.53;;;15.40;99.90;;;;;;6298944;28;20465;-64
2023/05/08 00:47:03;;;;;;;11.17;10.07;;;15.30;99.90;;;;;;6297821;28;20483;-64
2023/05/08 00:50:07;;;;;;;10.47;9.40;;;15.20;99.90;;;;;;6301790;28;20472;-64
2023/05/08 00:53:12;;;;;;;10.50;9.60;;;15.30;99.90;;;;;;6302882;28;20472;-65
2023/05/08 00:56:18;;;;;;;10.27;9.27;;;15.30;99.90;;;;;;6302552;28;20469;-65
2023/05/08 00:59:24;;;;;;;11.57;9.80;;;15.30;99.90;;;;;;6302552;28;20473;-65
2023/05/08 01:02:30;;;;;;;10.73;9.73;;;15.20;99.90;;;;;;6303141;28;20469;-66
2023/05/08 01:05:33;;;;;;;9.63;8.63;;;15.10;99.90;;;;;;6302761;28;20480;-65
2023/05/08 01:08:36;;;;;;;10.20;9.20;;;15.10;99.90;;;;;;6302548;28;20947;-65
2023/05/08 01:11:47;;;;;;;10.73;9.80;;;14.90;99.90;;;;;;6315927;28;20764;-66
2023/05/08 01:15:02;;;;;;;11.17;9.67;;;14.80;99.90;;;;;;6308476;28;20421;-66
2023/05/08 01:18:15;;;;;;;10.53;9.50;;;14.80;99.90;;;;;;6277456;28;20489;-66
2023/05/08 01:21:26;;;;;;;11.87;10.50;;;14.60;99.90;;;;;;6277953;28;20568;-65
2023/05/08 01:24:47;;;;;;;10.40;9.50;;;14.60;99.90;;;;;;6277730;28;20469;-65
2023/05/08 01:28:08;;;;;;;10.57;9.50;;;14.60;99.90;;;;;;6277453;28;20466;-65
2023/05/08 01:31:24;;;;;;;11.10;10.10;;;14.60;99.90;;;;;;6277457;28;20466;-65
2023/05/08 01:34:32;;;;;;;11.07;10.17;;;14.50;99.90;;;;;;6284869;28;20462;-65
2023/05/08 01:37:44;;;;;;;11.40;10.33;;;14.40;99.90;;;;;;6299329;28;20454;-65
2023/05/08 01:40:53;;;;;;;11.50;10.40;;;14.30;99.90;;;;;;6301225;28;20469;-67
2023/05/08 01:44:07;;;;;;;11.33;10.33;;;14.30;99.90;;;;;;6299445;28;20472;-65
2023/05/08 01:47:12;;;;;;;11.60;10.50;;;14.20;99.90;;;;;;6301207;28;20473;-65
2023/05/08 01:50:20;;;;;;;12.17;10.97;;;14.20;99.90;;;;;;6308898;28;20959;-65
2023/05/08 01:53:28;;;;;;;11.40;10.30;;;14.00;99.90;;;;;;6310551;28;20473;-66
2023/05/08 01:56:32;;;;;;;13.00;11.77;;;13.70;99.90;;;;;;6301080;28;20480;-65
2023/05/08 01:59:38;;;;;;;12.40;11.10;;;13.60;99.90;;;;;;6307059;28;20475;-65
2023/05/08 02:02:43;;;;;;;14.57;11.53;;;13.50;99.90;;;;;;6312842;28;20452;-65
2023/05/08 02:05:50;;;;;;;12.13;11.03;;;13.50;99.90;;;;;;6300542;28;20449;-65
2023/05/08 02:08:56;;;;;;;14.57;13.17;;;13.20;99.90;;;;;;6298505;28;20433;-65
2023/05/08 02:12:01;;;;;;;13.10;11.77;;;13.20;99.90;;;;;;6301899;28;20453;-66
2023/05/08 02:15:07;;;;;;;10.77;9.77;;;13.00;99.90;;;;;;6301011;28;20472;-65
2023/05/08 02:18:12;;;;;;;12.83;11.60;;;13.10;99.90;;;;;;6301408;28;20465;-65
2023/05/08 02:21:18;;;;;;;14.97;11.60;;;13.20;99.90;;;;;;6301334;28;20476;-65
2023/05/08 02:24:24;;;;;;;13.43;12.00;;;13.20;99.90;;;;;;6300891;28;20480;-64
2023/05/08 02:27:29;;;;;;;13.07;11.83;;;13.30;99.90;;;;;;6300499;28;20820;-65
2023/05/08 02:30:33;;;;;;;13.83;12.63;;;13.20;99.90;;;;;;6300663;28;20576;-64
2023/05/08 02:33:38;;;;;;;13.50;12.07;;;13.20;99.90;;;;;;6300468;28;20791;-64
2023/05/08 02:36:43;;;;;;;13.90;12.60;;;13.20;99.90;;;;;;6300612;28;20484;-65
2023/05/08 02:39:48;;;;;;;13.33;12.13;;;13.30;99.90;;;;;;6299941;28;20584;-65
2023/05/08 02:42:51;;;;;;;13.60;12.30;;;13.40;99.90;;;;;;6300245;28;20550;-65
2023/05/08 02:46:10;;;;;;;14.33;12.70;;;13.30;99.90;;;;;;6300719;28;20477;-64
2023/05/08 02:49:25;;;;;;;13.33;12.07;;;13.30;99.90;;;;;;6301435;28;20465;-64
2023/05/08 02:52:32;;;;;;;13.73;12.33;;;13.30;99.90;;;;;;6301017;28;20983;-64
2023/05/08 02:55:48;;;;;;;15.33;13.40;;;13.20;99.90;;;;;;6300712;28;20484;-64
2023/05/08 02:58:59;;;;;;;12.60;11.33;;;13.00;99.90;;;;;;6300514;28;20504;-65
2023/05/08 03:02:08;;;;;;;13.37;11.73;;;12.90;99.90;;;;;;6291920;28;21038;-64
2023/05/08 03:05:16;;;;;;;13.63;12.27;;;12.80;99.90;;;;;;6299888;28;20481;-64
2023/05/08 03:08:25;;;;;;;14.73;13.23;;;12.70;99.90;;;;;;6299900;28;20472;-64
2023/05/08 03:11:36;;;;;;;15.87;14.37;;;12.70;99.90;;;;;;6299536;28;20474;-64
2023/05/08 03:14:45;;;;;;;13.43;12.03;;;12.60;99.90;;;;;;6275323;28;20440;-65
2023/05/08 03:17:52;;;;;;;14.07;12.77;;;12.60;99.90;;;;;;6275115;28;20489;-65
2023/05/08 03:20:59;;;;;;;13.30;12.00;;;12.50;99.90;;;;;;6275269;28;20466;-66
2023/05/08 03:24:06;;;;;;;13.43;12.07;;;12.50;99.90;;;;;;6274840;28;21000;-65
2023/05/08 03:27:09;;;;;;;12.50;11.30;;;12.40;99.90;;;;;;6275057;28;20462;-64
2023/05/08 03:30:14;;;;;;;13.50;12.13;;;12.40;99.90;;;;;;6274816;28;20458;-65
2023/05/08 03:33:18;;;;;;;13.63;12.23;;;12.30;99.90;;;;;;6274727;28;20477;-65
2023/05/08 03:36:23;;;;;;;12.87;11.57;;;12.30;99.90;;;;;;6274123;28;20531;-64
2023/05/08 03:39:28;;;;;;;13.73;12.27;;;12.40;99.90;;;;;;6274872;28;20470;-65
2023/05/08 03:42:31;;;;;;;12.97;11.70;;;12.40;99.90;;;;;;6274604;28;20470;-65
2023/05/08 03:45:36;;;;;;;13.50;12.10;;;12.30;99.90;;;;;;6273323;28;20531;-64
2023/05/08 03:48:41;;;;;;;13.83;11.83;;;12.30;99.90;;;;;;6274932;28;20492;-64
2023/05/08 03:51:45;;;;;;;14.30;12.80;;;12.40;99.90;;;;;;6284214;28;20793;-64
2023/05/08 03:54:49;;;;;;;15.13;13.63;;;12.30;99.90;;;;;;6299420;28;20964;-63
2023/05/08 03:57:59;;;;;;;15.10;13.40;;;12.30;99.90;;;;;;6299852;28;20477;-63
2023/05/08 04:01:08;;;;;;;15.13;13.60;;;12.50;99.90;;;;;;6298975;28;20784;-64
2023/05/08 04:04:16;;;;;;;14.50;13.00;;;12.50;99.90;;;;;;6299204;28;20476;-64
2023/05/08 04:07:27;;;;;;;13.40;12.10;;;12.60;99.90;;;;;;6298768;28;20565;-64
2023/05/08 04:10:41;;;;;;;13.87;12.43;;;12.60;99.90;;;;;;6298798;28;20477;-64
2023/05/08 04:13:50;;;;;;;15.27;13.77;;;12.50;99.90;;;;;;6306542;28;20453;-64
2023/05/08 04:17:09;;;;;;;15.13;13.20;;;12.60;99.90;;;;;;6324072;28;20485;-64
2023/05/08 04:20:17;;;;;;;13.47;12.17;;;12.60;99.90;;;;;;6306886;28;20473;-64
2023/05/08 04:23:22;;;;;;;16.60;13.17;;;12.60;99.90;;;;;;6301395;28;20803;-64
2023/05/08 04:26:28;;;;;;;14.27;12.87;;;12.50;99.90;;;;;;6303768;28;20483;-64
2023/05/08 04:29:32;;;;;;;16.90;13.37;;;12.40;99.90;;;;;;6303556;28;20571;-63
2023/05/08 04:32:37;;;;;;;15.93;14.23;;;12.50;99.90;;;;;;6304551;28;20469;-64
2023/05/08 04:35:44;;;;;;;16.27;14.60;;;12.30;99.90;;;;;;6306502;28;20461;-64
2023/05/08 04:38:47;;;;;;;17.00;15.20;;;12.10;99.90;;;;;;6305710;28;20940;-64
2023/05/08 04:41:54;;;;;;;15.87;14.30;;;12.00;99.90;;;;;;6304609;28;20496;-65
2023/05/08 04:44:57;;;;;;;16.93;15.33;;;11.80;99.90;;;;;;6305486;28;20797;-64
2023/05/08 04:48:00;;;;;;;16.67;14.63;;;11.60;99.90;;;;;;6305994;28;20483;-65
2023/05/08 04:51:04;;;;;;;16.23;14.70;;;11.50;99.90;;;;;;6306119;28;20825;-65
2023/05/08 04:54:07;;;;;;;17.13;14.70;;;11.50;99.90;;;;;;6307167;28;20480;-65
2023/05/08 04:57:12;;;;;;;16.63;14.87;;;11.50;99.90;;;;;;6304785;28;20479;-65
2023/05/08 05:00:16;;;;;;;18.30;15.93;;;11.40;99.90;;;;;;6307154;28;20473;-65
2023/05/08 05:03:19;;;;;;;17.10;15.40;;;11.50;99.90;;;;;;6302831;28;20480;-65
2023/05/08 05:06:22;;;;;;;17.30;15.50;;;11.60;99.90;;;;;;6302769;28;20484;-64
2023/05/08 05:09:25;;;;;;;18.60;16.70;;;11.70;99.90;;;;;;6302841;28;20473;-64
2023/05/08 05:12:30;;;;;;;17.23;15.37;;;11.40;99.90;;;;;;6303139;28;20487;-64
2023/05/08 05:15:33;;;;;;;17.10;15.33;;;11.40;99.90;;;;;;6303006;28;20473;-63
2023/05/08 05:18:36;;;;;;;16.93;15.20;;;11.50;99.90;;;;;;6302758;28;20485;-64
2023/05/08 05:21:39;;;;;;;18.23;15.20;;;11.60;99.90;;;;;;6302733;28;20971;-64
2023/05/08 05:24:42;;;;;;;17.40;15.40;;;11.60;99.90;;;;;;6302552;28;20787;-63
2023/05/08 05:27:47;;;;;;;19.80;17.20;;;11.70;99.90;;;;;;6303034;28;20484;-64
2023/05/08 05:30:50;;;;;;;17.73;15.47;;;11.70;99.90;;;;;;6302205;28;20587;-64
2023/05/08 05:33:53;;;;;;;20.17;17.17;;;11.70;99.90;;;;;;6301926;28;20801;-65
2023/05/08 05:36:56;;;;;;;17.97;16.00;;;11.90;99.90;;;;;;6302136;28;20473;-65
2023/05/08 05:39:59;;;;;;;15.10;13.40;;;12.00;99.90;;;;;;6302096;28;20822;-65
2023/05/08 05:43:04;;;;;;;17.10;15.40;;;11.90;99.90;;;;;;6302494;28;20474;-65
2023/05/08 05:46:08;;;;;;;16.73;15.07;;;11.90;99.90;;;;;;6302354;28;20775;-65
2023/05/08 05:49:11;;;;;;;18.17;15.70;;;12.00;99.90;;;;;;6302177;28;20709;-65
2023/05/08 05:52:15;;;;;;;19.10;17.10;;;12.10;99.90;;;;;;6302827;28;20477;-64
2023/05/08 05:55:18;;;;;;;16.80;15.17;;;12.20;99.90;;;;;;6302751;28;20470;-64
2023/05/08 05:58:22;;;;;;;18.63;16.63;;;12.20;99.90;;;;;;6303114;28;20477;-64
2023/05/08 06:01:27;;;;;;;18.80;14.57;;;12.00;99.90;;;;;;6302273;28;20785;-64
2023/05/08 06:04:31;;;;;;;17.87;16.07;;;11.80;99.90;;;;;;6302066;28;20472;-64
2023/05/08 06:07:34;;;;;;;16.50;14.63;;;11.60;99.90;;;;;;6301363;28;20469;-65
2023/05/08 06:10:37;;;;;;;18.37;16.37;;;11.70;99.90;;;;;;6300994;28;20774;-65
2023/05/08 06:13:42;;;;;;;18.30;16.40;;;11.90;99.90;;;;;;6301211;28;20484;-65
2023/05/08 06:16:45;;;;;;;17.57;15.67;;;11.80;99.90;;;;;;6301250;28;20488;-64
2023/05/08 06:19:52;;;;;;;18.03;16.20;;;11.90;99.90;;;;;;6301200;28;20476;-65
2023/05/08 06:22:55;;;;;;;17.60;15.70;;;11.90;99.90;;;;;;6301112;28;20473;-65
2023/05/08 06:25:59;;;;;;;18.67;16.70;;;12.00;99.90;;;;;;6300770;28;20538;-65
2023/05/08 06:29:03;;;;;;;21.20;17.50;;;12.10;99.90;;;;;;6300638;28;20952;-64
2023/05/08 06:32:06;;;;;;;19.07;16.83;;;12.00;99.90;;;;;;6300671;28;20480;-64
2023/05/08 06:35:10;;;;;;;18.50;16.60;;;11.80;99.90;;;;;;6300821;28;20483;-64
2023/05/08 06:38:14;;;;;;;24.03;18.10;;;11.90;99.90;;;;;;6301757;28;20469;-65
2023/05/08 06:41:18;;;;;;;18.37;16.43;;;12.00;99.90;;;;;;6288714;28;21033;-65
2023/05/08 06:44:22;;;;;;;18.43;16.43;;;12.10;99.90;;;;;;6315071;28;20771;-65
2023/05/08 06:47:25;;;;;;;19.57;17.57;;;12.20;99.90;;;;;;6304485;28;20964;-65
2023/05/08 06:50:28;;;;;;;18.43;16.47;;;12.20;99.90;;;;;;6301135;28;20479;-65
2023/05/08 06:53:32;;;;;;;19.30;17.30;;;12.40;99.90;;;;;;6300670;28;20469;-66
2023/05/08 06:56:35;;;;;;;18.67;16.30;;;12.50;99.90;;;;;;6300276;28;20476;-65
2023/05/08 06:59:39;;;;;;;19.03;17.03;;;12.60;99.90;;;;;;6299974;28;20507;-65
2023/05/08 07:02:42;;;;;;;17.13;15.43;;;12.70;99.90;;;;;;6300192;28;20457;-65
2023/05/08 07:05:46;;;;;;;17.00;15.20;;;12.60;99.90;;;;;;6302718;28;20773;-65
2023/05/08 07:08:49;;;;;;;18.90;16.00;;;12.70;99.90;;;;;;6300528;28;20456;-65
2023/05/08 07:11:52;;;;;;;20.77;17.47;;;12.70;99.90;;;;;;6303022;28;20449;-65
2023/05/08 07:14:58;;;;;;;17.60;15.80;;;12.60;99.90;;;;;;6290873;28;20447;-64
2023/05/08 07:18:04;;;;;;;17.73;15.83;;;12.70;99.90;;;;;;6313600;28;20480;-66
2023/05/08 07:21:07;;;;;;;18.00;15.00;;;12.90;99.90;;;;;;6302275;28;20467;-67
2023/05/08 07:24:10;;;;;;;18.63;16.10;;;13.00;99.90;;;;;;6311008;28;20468;-67
2023/05/08 07:27:14;;;;;;;18.57;16.60;;;13.20;99.90;;;;;;6312180;28;20473;-66
2023/05/08 07:30:18;;;;;;;17.20;15.40;;;13.30;99.90;;;;;;6312082;28;20465;-66
2023/05/08 07:33:21;;;;;;;18.03;16.00;;;13.30;99.90;;;;;;6310651;28;20481;-66
2023/05/08 07:36:25;;;;;;;20.97;18.67;;;13.40;99.90;;;;;;6302348;28;20953;-67
2023/05/08 07:39:31;;;;;;;22.00;18.13;;;13.20;99.90;;;;;;6299429;28;20473;-66
2023/05/08 07:42:39;;;;;;;17.70;15.80;;;13.10;99.90;;;;;;6299382;28;20960;-65
2023/05/08 07:45:43;;;;;;;20.60;16.87;;;13.20;99.90;;;;;;6303107;28;20483;-65
2023/05/08 07:48:46;;;;;;;21.20;18.10;;;13.40;99.90;;;;;;6317139;28;20468;-67
2023/05/08 07:51:50;;;;;;;19.93;17.10;;;13.50;99.90;;;;;;6323841;28;20555;-67
2023/05/08 07:54:53;;;;;;;21.80;17.80;;;13.60;99.90;;;;;;6324290;28;20476;-66
2023/05/08 07:57:56;;;;;;;23.33;17.70;;;13.50;99.90;;;;;;6326137;28;20468;-66
2023/05/08 08:01:01;;;;;;;20.00;15.97;;;13.40;99.90;;;;;;6329398;28;20468;-67
2023/05/08 08:04:04;;;;;;;23.27;20.57;;;13.30;99.90;;;;;;6329432;28;20479;-66
2023/05/08 08:07:08;;;;;;;25.83;19.23;;;13.30;99.90;;;;;;6329433;28;20475;-68
2023/05/08 08:10:11;;;;;;;21.20;19.10;;;13.50;99.90;;;;;;6329625;28;20468;-68
2023/05/08 08:13:14;;;;;;;21.83;19.13;;;13.50;99.90;;;;;;6329441;28;20471;-67
2023/05/08 08:16:19;;;;;;;19.63;17.60;;;13.60;99.90;;;;;;6329388;28;20468;-67
2023/05/08 08:19:22;;;;;;;22.27;19.63;;;13.70;99.90;;;;;;6329130;28;20488;-67
2023/05/08 08:22:26;;;;;;;20.17;17.80;;;13.90;99.90;;;;;;6328520;28;20468;-65
2023/05/08 08:25:29;;;;;;;21.60;19.33;;;14.00;99.90;;;;;;6328625;28;20472;-65
2023/05/08 08:28:32;;;;;;;20.37;17.30;;;14.10;99.90;;;;;;6328822;28;21073;-65
2023/05/08 08:31:37;;;;;;;18.70;16.77;;;14.20;99.90;;;;;;6325587;28;20461;-66
2023/05/08 08:34:40;;;;;;;20.03;18.00;;;14.20;99.90;;;;;;6303761;28;20569;-66
2023/05/08 08:37:43;;;;;;;18.83;16.70;;;14.30;99.90;;;;;;6303115;28;20488;-65
2023/05/08 08:40:46;;;;;;;19.70;17.60;;;14.30;99.90;;;;;;6303216;28;20991;-66
2023/05/08 08:43:49;;;;;;;17.33;15.50;;;14.40;99.90;;;;;;6316995;28;20472;-63
2023/05/08 08:46:54;;;;;;;19.43;17.37;;;14.40;99.90;;;;;;6330801;28;20475;-66
2023/05/08 08:50:02;;;;;;;20.50;18.37;;;14.60;99.90;;;;;;6324826;28;20468;-66
2023/05/08 08:53:11;;;;;;;19.40;17.43;;;14.60;99.90;;;;;;6311536;28;20470;-66
2023/05/08 08:56:16;;;;;;;19.63;17.63;;;14.60;99.90;;;;;;6318339;28;20476;-67
2023/05/08 08:59:20;;;;;;;18.80;16.97;;;14.60;99.90;;;;;;6314226;28;20468;-67
2023/05/08 09:02:26;;;;;;;20.13;18.03;;;14.70;99.90;;;;;;6313278;28;20469;-69
2023/05/08 09:05:30;;;;;;;20.37;18.27;;;14.50;99.90;;;;;;6302871;28;20469;-67
2023/05/08 09:08:34;;;;;;;22.53;17.70;;;14.30;99.90;;;;;;6317132;28;20480;-66
2023/05/08 09:11:38;;;;;;;18.80;16.43;;;14.30;99.90;;;;;;6339629;28;20468;-67
2023/05/08 09:14:42;;;;;;;20.03;18.00;;;14.30;99.90;;;;;;6308608;28;20473;-67
2023/05/08 09:17:46;;;;;;;20.00;17.87;;;14.30;99.90;;;;;;6328523;28;20444;-66
2023/05/08 09:20:50;;;;;;;20.23;18.13;;;14.40;99.90;;;;;;6327797;28;20616;-67
2023/05/08 09:24:00;;;;;;;20.70;18.33;;;14.20;99.90;;;;;;6324543;28;20436;-67
2023/05/08 09:27:04;;;;;;;24.97;19.20;;;14.10;99.90;;;;;;6327577;28;20942;-67
2023/05/08 09:30:09;;;;;;;20.50;18.30;;;14.10;99.90;;;;;;6322465;28;20826;-68
2023/05/08 09:33:13;;;;;;;20.33;18.27;;;14.30;99.90;;;;;;6316145;28;20465;-69
2023/05/08 09:36:26;;;;;;;20.43;18.30;;;14.50;99.90;;;;;;6301522;28;20499;-67
2023/05/08 09:39:30;;;;;;;21.37;18.23;;;14.50;99.90;;;;;;6300136;28;20498;-68
2023/05/08 09:42:38;;;;;;;21.23;19.00;;;14.50;99.90;;;;;;6301133;28;20465;-67
2023/05/08 09:45:41;;;;;;;20.03;17.87;;;14.60;99.90;;;;;;6301420;28;20465;-68
2023/05/08 09:48:46;;;;;;;22.30;18.50;;;14.40;99.90;;;;;;6300874;28;20560;-68
2023/05/08 09:51:53;;;;;;;24.60;18.37;;;14.20;99.90;;;;;;6300677;28;20469;-68
2023/05/08 09:54:58;;;;;;;24.13;19.00;;;14.00;99.90;;;;;;6299810;28;20469;-67
2023/05/08 09:58:02;;;;;;;21.93;19.63;;;13.80;99.90;;;;;;6300434;28;20484;-68
2023/05/08 10:01:06;;;;;;;22.87;20.47;;;13.70;99.90;;;;;;6300344;28;20772;-68
2023/05/08 10:04:10;;;;;;;21.97;19.50;;;13.60;99.90;;;;;;6300641;28;20480;-68
2023/05/08 10:07:14;;;;;;;20.93;18.67;;;13.40;99.90;;;;;;6301403;28;20570;-67
2023/05/08 10:10:24;;;;;;;23.20;18.07;;;13.40;99.90;;;;;;6301588;28;20476;-68
2023/05/08 10:13:28;;;;;;;27.30;20.93;;;13.60;99.90;;;;;;6301034;28;20508;-67
2023/05/08 10:16:36;;;;;;;22.53;18.83;;;13.90;99.90;;;;;;6301057;28;20964;-66
2023/05/08 10:19:45;;;;;;;22.90;20.50;;;13.80;99.90;;;;;;6300384;28;20499;-66
2023/05/08 10:22:49;;;;;;;25.90;20.93;;;13.30;99.90;;;;;;6288620;28;20944;-66
2023/05/08 10:25:58;;;;;;;23.13;20.23;;;13.30;99.90;;;;;;6299926;28;20485;-66
2023/05/08 10:29:07;;;;;;;28.40;22.83;;;13.30;99.90;;;;;;6300609;28;20469;-66
2023/05/08 10:32:13;;;;;;;22.87;20.40;;;13.30;99.90;;;;;;6300578;28;20526;-66
2023/05/08 10:35:18;;;;;;;26.13;22.13;;;13.30;99.90;;;;;;6300174;28;20466;-65
2023/05/08 10:38:23;;;;;;;24.47;20.40;;;13.40;99.90;;;;;;6300266;28;20469;-65
2023/05/08 10:41:26;;;;;;;28.87;22.07;;;13.60;99.90;;;;;;6299158;28;20473;-66
2023/05/08 10:44:31;;;;;;;27.90;22.80;;;13.60;99.90;;;;;;6300219;28;20540;-67
2023/05/08 10:47:59;;;;;;;25.20;21.90;;;13.70;99.90;;;;;;6300032;28;20481;-66
2023/05/08 10:51:09;;;;;;;28.23;22.27;;;13.60;99.90;;;;;;6300425;28;21002;-66
2023/05/08 10:54:20;;;;;;;23.83;21.20;;;13.60;99.90;;;;;;6308790;28;20471;-66
2023/05/08 10:57:23;;;;;;;25.30;21.60;;;13.50;99.90;;;;;;6311478;28;20532;-66
2023/05/08 11:00:31;;;;;;;27.63;22.90;;;13.60;99.90;;;;;;6294985;28;20473;-66
2023/05/08 11:03:40;;;;;;;24.50;21.77;;;13.60;99.90;;;;;;6296848;28;20473;-66
2023/05/08 11:06:51;;;;;;;28.00;22.60;;;13.50;99.90;;;;;;6296530;28;21007;-67
2023/05/08 11:09:55;;;;;;;23.90;21.23;;;13.50;99.90;;;;;;6296264;28;20478;-66
2023/05/08 11:13:00;;;;;;;30.17;24.47;;;13.60;99.90;;;;;;6298887;28;20479;-66
2023/05/08 11:16:05;;;;;;;29.30;23.10;;;13.90;99.90;;;;;;6297072;28;20518;-66
2023/05/08 11:19:19;;;;;;;25.90;21.73;;;14.30;99.90;;;;;;6295299;28;20480;-67
2023/05/08 11:22:27;;;;;;;26.80;21.60;;;14.60;99.90;;;;;;6295287;28;20952;-67
2023/05/08 11:25:42;;;;;;;25.30;22.10;;;14.90;99.90;;;;;;6289959;28;20469;-67
2023/05/08 11:28:57;;;;;;;23.90;21.40;;;15.20;99.90;;;;;;6302753;28;20953;-67
2023/05/08 11:32:00;;;;;;;23.23;20.77;;;15.40;99.90;;;;;;6304427;28;20857;-69
2023/05/08 11:35:10;;;;;;;24.93;22.33;;;15.60;99.90;;;;;;6306151;28;20491;-67
2023/05/08 11:38:19;;;;;;;25.00;21.73;;;15.70;99.90;;;;;;6300880;28;20948;-68
2023/05/08 11:41:24;;;;;;;25.63;19.90;;;16.00;99.90;;;;;;6299015;28;20485;-68
2023/05/08 11:44:29;;;;;;;25.07;22.30;;;16.40;99.90;;;;;;6299368;28;20909;-68
2023/05/08 11:47:42;;;;;;;23.13;20.30;;;16.60;99.90;;;;;;6299127;28;20523;-68
2023/05/08 11:50:46;;;;;;;22.67;20.27;;;17.00;99.90;;;;;;6299752;28;20476;-69
2023/05/08 11:53:51;;;;;;;24.50;19.83;;;17.20;99.90;;;;;;6299110;28;20452;-68
2023/05/08 11:56:55;;;;;;;21.43;19.20;;;17.50;99.30;;;;;;6286639;28;20473;-67
2023/05/08 11:59:58;;;;;;;23.77;20.80;;;17.90;99.00;;;;;;6274706;28;20442;-66
2023/05/08 12:03:06;;;;;;;22.80;20.40;;;17.90;98.10;;;;;;6274996;28;20446;-66
2023/05/08 12:06:10;;;;;;;22.80;20.33;;;18.20;98.10;;;;;;6274272;28;20477;-66
2023/05/08 12:09:16;;;;;;;23.57;19.53;;;18.60;97.30;;;;;;6274729;28;20461;-65
2023/05/08 12:12:19;;;;;;;20.10;18.10;;;19.30;96.30;;;;;;6274420;28;20227;-66
2023/05/08 12:15:22;;;;;;;21.73;19.53;;;19.70;95.10;;;;;;6274902;28;20228;-66
2023/05/08 12:18:28;;;;;;;20.97;18.77;;;19.00;95.10;;;;;;6274767;28;20227;-67
2023/05/08 12:21:31;;;;;;;22.33;19.90;;;18.80;95.60;;;;;;6297659;28;20231;-66
2023/05/08 12:24:36;;;;;;;23.43;20.87;;;19.10;95.50;;;;;;6296552;28;20713;-66
2023/05/08 12:27:39;;;;;;;22.07;19.87;;;19.40;94.90;;;;;;6298144;28;20233;-66
2023/05/08 12:30:42;;;;;;;21.80;19.47;;;19.40;94.10;;;;;;6298191;28;20227;-66
2023/05/08 12:33:46;;;;;;;26.23;20.20;;;19.50;93.70;;;;;;6298039;28;20718;-67
2023/05/08 12:36:50;;;;;;;21.30;19.10;;;19.60;93.30;;;;;;6295707;28;20241;-67
2023/05/08 12:39:54;;;;;;;22.43;20.20;;;19.10;93.60;;;;;;6298062;28;20279;-66
2023/05/08 12:43:00;;;;;;;24.20;20.23;;;19.10;93.80;;;;;;6299131;28;20585;-67
2023/05/08 12:46:04;;;;;;;22.00;19.80;;;19.20;93.50;;;;;;6308049;28;20238;-66
2023/05/08 12:49:11;;;;;;;24.13;21.07;;;19.30;93.40;;;;;;6308434;28;20352;-65
2023/05/08 12:52:16;;;;;;;22.93;20.57;;;19.50;93.20;;;;;;6302796;28;20598;-66
2023/05/08 12:55:26;;;;;;;20.80;18.70;;;19.30;93.20;;;;;;6302617;28;20233;-66
2023/05/08 12:58:31;;;;;;;21.20;19.00;;;19.30;93.60;;;;;;6291256;28;20230;-66
2023/05/08 13:01:34;;;;;;;23.20;20.90;;;19.60;92.80;;;;;;6304257;28;20226;-66
2023/05/08 13:04:38;;;;;;;20.23;18.20;;;19.70;92.70;;;;;;6314939;28;20654;-66
2023/05/08 13:07:41;;;;;;;22.10;19.90;;;19.20;92.70;;;;;;6314209;28;20222;-67
2023/05/08 13:10:51;;;;;;;22.40;19.90;;;19.00;92.70;;;;;;6313678;28;20214;-66
2023/05/08 13:13:54;;;;;;;21.27;18.97;;;18.60;93.90;;;;;;6313896;28;20223;-67
2023/05/08 13:16:58;;;;;;;21.50;19.30;;;18.60;94.10;;;;;;6314488;28;20245;-66
2023/05/08 13:20:02;;;;;;;23.57;19.50;;;18.30;94.60;;;;;;6325955;28;20257;-66
2023/05/08 13:23:09;;;;;;;20.80;18.60;;;18.30;94.60;;;;;;6313703;28;20261;-66
2023/05/08 13:26:13;;;;;;;21.00;18.40;;;18.30;94.60;;;;;;6318438;28;20234;-66
2023/05/08 13:29:16;;;;;;;21.83;19.40;;;18.40;94.90;;;;;;6318416;28;20218;-66
2023/05/08 13:32:19;;;;;;;21.00;18.73;;;18.70;94.60;;;;;;6327190;28;20280;-66
2023/05/08 13:35:23;;;;;;;21.90;18.03;;;18.90;94.00;;;;;;6324848;28;20237;-66
2023/05/08 13:38:26;;;;;;;21.03;18.73;;;19.00;93.80;;;;;;6310692;28;20222;-66
2023/05/08 13:41:31;;;;;;;22.00;19.70;;;18.80;94.00;;;;;;6313282;28;20241;-66
2023/05/08 13:44:34;;;;;;;22.10;19.13;;;18.90;93.80;;;;;;6309879;28;20245;-66
2023/05/08 13:47:37;;;;;;;22.50;20.17;;;19.00;93.60;;;;;;6301585;28;20265;-68
2023/05/08 13:50:40;;;;;;;21.47;19.10;;;19.00;94.00;;;;;;6324722;28;20222;-68
2023/05/08 13:53:43;;;;;;;22.10;19.63;;;18.40;94.30;;;;;;6330277;28;20289;-67
2023/05/08 13:56:48;;;;;;;24.20;20.80;;;18.40;94.70;;;;;;6342205;28;20229;-67
2023/05/08 13:59:52;;;;;;;20.23;18.07;;;18.10;95.00;;;;;;6353896;28;20198;-66
2023/05/08 14:02:55;;;;;;;21.50;18.57;;;18.00;95.00;;;;;;6330592;28;20542;-67
2023/05/08 14:05:58;;;;;;;20.90;18.80;;;18.10;95.40;;;;;;6327324;28;20765;-68
2023/05/08 14:09:01;;;;;;;23.80;19.20;;;18.20;95.40;;;;;;6327226;28;20460;-68
2023/05/08 14:12:06;;;;;;;20.17;17.63;;;18.20;95.00;;;;;;6327382;28;20225;-68
2023/05/08 14:15:12;;;;;;;20.20;18.00;;;18.20;95.40;;;;;;6326988;28;20476;-68
2023/05/08 14:18:15;;;;;;;20.73;18.33;;;18.20;95.40;;;;;;6320814;28;20460;-67
2023/05/08 14:21:18;;;;;;;20.20;18.23;;;18.30;95.20;;;;;;6314186;28;20472;-67
2023/05/08 14:24:22;;;;;;;19.77;17.57;;;18.10;94.90;;;;;;6313286;28;20475;-66
2023/05/08 14:27:26;;;;;;;20.63;17.77;;;17.80;95.20;;;;;;6316613;28;20689;-67
2023/05/08 14:30:29;;;;;;;20.17;18.17;;;17.40;95.80;;;;;;6313587;28;20472;-66
2023/05/08 14:33:32;;;;;;;19.77;17.77;;;17.30;96.00;;;;;;6312103;28;20456;-66
2023/05/08 14:36:36;;;;;;;21.17;17.43;;;17.20;96.60;;;;;;6306366;28;20487;-64
2023/05/08 14:39:39;;;;;;;18.07;15.50;;;17.00;97.20;;;;;;6311646;28;20472;-66
2023/05/08 14:42:43;;;;;;;20.30;17.80;;;17.10;97.40;;;;;;6315916;28;20487;-66
2023/05/08 14:45:46;;;;;;;21.30;17.43;;;16.90;97.50;;;;;;6312644;28;20473;-67
2023/05/08 14:48:50;;;;;;;21.23;18.23;;;16.80;97.90;;;;;;6310952;28;20479;-67
2023/05/08 14:51:53;;;;;;;21.93;17.77;;;16.70;98.40;;;;;;6312067;28;20472;-66
2023/05/08 14:54:57;;;;;;;20.27;18.20;;;16.60;98.60;;;;;;6312019;28;20797;-67
2023/05/08 14:58:02;;;;;;;21.63;17.70;;;16.80;98.60;;;;;;6317110;28;20488;-68
2023/05/08 15:01:05;;;;;;;21.00;17.07;;;17.10;98.40;;;;;;6311155;28;20476;-67
2023/05/08 15:04:09;;;;;;;19.80;17.23;;;17.30;98.20;;;;;;6314447;28;20472;-67
2023/05/08 15:07:12;;;;;;;22.20;17.77;;;17.40;98.10;;;;;;6324148;28;21081;-67
2023/05/08 15:10:16;;;;;;;23.20;19.47;;;17.60;97.90;;;;;;6310994;28;20491;-66
2023/05/08 15:13:20;;;;;;;22.50;20.17;;;17.60;98.00;;;;;;6311007;28;20793;-67
2023/05/08 15:16:23;;;;;;;20.47;18.30;;;17.60;98.10;;;;;;6300428;28;20465;-69
2023/05/08 15:19:27;;;;;;;21.20;19.03;;;17.70;98.20;;;;;;6302561;28;20492;-67
2023/05/08 15:22:30;;;;;;;20.37;18.23;;;17.70;98.00;;;;;;6299679;28;20473;-68
2023/05/08 15:25:33;;;;;;;20.23;18.30;;;17.70;97.90;;;;;;6305890;28;20491;-66
2023/05/08 15:28:40;;;;;;;20.70;17.20;;;17.70;97.70;;;;;;6325258;28;20471;-66
2023/05/08 15:31:43;;;;;;;22.40;20.07;;;17.70;98.00;;;;;;6326373;28;20476;-66
2023/05/08 15:34:46;;;;;;;20.27;18.20;;;17.80;98.20;;;;;;6326294;28;20464;-67
2023/05/08 15:37:49;;;;;;;21.30;19.20;;;17.90;98.40;;;;;;6326231;28;20704;-67
2023/05/08 15:40:53;;;;;;;21.50;19.40;;;18.00;98.30;;;;;;6324897;28;20375;-66